Mansfield, Connecticut
Current Conditions -  °F | °C
As of 4:52 PM on Wednesday 28 Jan 2015 (Local Time) from KIJD Reporting Station
Clear Clear  
Wind Chill: 16°   Ceiling: Unl
Heat Index: 25°   Visibility: 10mi
Dew Point:   Wind: 8mph
Humidity: 49%   Direction: 330°NNW
Pressure: 30.07"   Gusts: NA
Location:  41.8004°N, 72.2476°W
Report Text: KIJD 282152Z AUTO 33007KT 10SM CLR M04/M13 A3007 RMK AO2 SLP187 T10391133
Loading
Personal Weather Stations






























Interactive Weather Map New forecast layout! Learn more

10-Day Weather Forecast

Advertisements
Track Severe Weather on mobile